sensor_id;sensor_type;location;lat;lon;timestamp;temperature;humidity
5352;DHT22;2698;51.454;6.736;2022-07-29T00:00:05;19.50;48.30
5352;DHT22;2698;51.454;6.736;2022-07-29T00:02:33;19.40;48.60
5352;DHT22;2698;51.454;6.736;2022-07-29T00:05:00;19.40;48.70
5352;DHT22;2698;51.454;6.736;2022-07-29T00:07:27;19.40;49.10
5352;DHT22;2698;51.454;6.736;2022-07-29T00:09:53;19.40;49.40
5352;DHT22;2698;51.454;6.736;2022-07-29T00:12:22;19.40;50.30
5352;DHT22;2698;51.454;6.736;2022-07-29T00:14:51;19.40;49.70
5352;DHT22;2698;51.454;6.736;2022-07-29T00:17:18;19.40;49.80
5352;DHT22;2698;51.454;6.736;2022-07-29T00:19:44;19.40;50.00
5352;DHT22;2698;51.454;6.736;2022-07-29T00:22:11;19.40;50.10
5352;DHT22;2698;51.454;6.736;2022-07-29T00:24:38;19.30;50.40
5352;DHT22;2698;51.454;6.736;2022-07-29T00:27:05;19.30;50.70
5352;DHT22;2698;51.454;6.736;2022-07-29T00:29:31;19.30;50.90
5352;DHT22;2698;51.454;6.736;2022-07-29T00:32:00;19.30;51.60
5352;DHT22;2698;51.454;6.736;2022-07-29T00:34:26;19.20;51.20
5352;DHT22;2698;51.454;6.736;2022-07-29T00:37:23;19.30;51.50
5352;DHT22;2698;51.454;6.736;2022-07-29T00:39:49;19.20;51.80
5352;DHT22;2698;51.454;6.736;2022-07-29T00:42:17;19.20;52.40
5352;DHT22;2698;51.454;6.736;2022-07-29T00:44:44;19.10;52.70
5352;DHT22;2698;51.454;6.736;2022-07-29T00:47:12;19.10;53.20
5352;DHT22;2698;51.454;6.736;2022-07-29T00:49:40;19.10;54.00
5352;DHT22;2698;51.454;6.736;2022-07-29T00:52:09;19.00;54.80
5352;DHT22;2698;51.454;6.736;2022-07-29T00:54:38;19.00;55.40
5352;DHT22;2698;51.454;6.736;2022-07-29T00:57:06;19.00;56.10
5352;DHT22;2698;51.454;6.736;2022-07-29T00:59:33;19.00;56.20
5352;DHT22;2698;51.454;6.736;2022-07-29T01:02:00;19.00;56.80
5352;DHT22;2698;51.454;6.736;2022-07-29T01:04:29;19.00;56.70
5352;DHT22;2698;51.454;6.736;2022-07-29T01:06:56;19.00;57.20
5352;DHT22;2698;51.454;6.736;2022-07-29T01:09:23;19.00;57.10
5352;DHT22;2698;51.454;6.736;2022-07-29T01:11:51;19.00;57.20
5352;DHT22;2698;51.454;6.736;2022-07-29T01:14:18;19.00;57.70
5352;DHT22;2698;51.454;6.736;2022-07-29T01:16:51;19.00;58.30
5352;DHT22;2698;51.454;6.736;2022-07-29T01:19:40;18.90;59.00
5352;DHT22;2698;51.454;6.736;2022-07-29T01:22:25;18.80;60.70
5352;DHT22;2698;51.454;6.736;2022-07-29T01:25:05;18.80;61.90
5352;DHT22;2698;51.454;6.736;2022-07-29T01:27:44;18.90;62.10
5352;DHT22;2698;51.454;6.736;2022-07-29T01:30:15;18.80;63.00
5352;DHT22;2698;51.454;6.736;2022-07-29T01:32:43;18.90;62.80
5352;DHT22;2698;51.454;6.736;2022-07-29T01:35:18;18.80;63.10
5352;DHT22;2698;51.454;6.736;2022-07-29T01:37:50;18.80;63.70
5352;DHT22;2698;51.454;6.736;2022-07-29T01:40:20;18.90;63.30
5352;DHT22;2698;51.454;6.736;2022-07-29T01:42:51;18.80;63.30
5352;DHT22;2698;51.454;6.736;2022-07-29T01:45:23;18.90;63.70
5352;DHT22;2698;51.454;6.736;2022-07-29T01:47:56;18.90;64.60
5352;DHT22;2698;51.454;6.736;2022-07-29T01:50:30;18.80;64.20
5352;DHT22;2698;51.454;6.736;2022-07-29T01:53:00;18.80;64.60
5352;DHT22;2698;51.454;6.736;2022-07-29T01:55:31;18.90;64.40
5352;DHT22;2698;51.454;6.736;2022-07-29T01:58:00;18.90;65.00
5352;DHT22;2698;51.454;6.736;2022-07-29T02:00:30;18.80;65.50
5352;DHT22;2698;51.454;6.736;2022-07-29T02:02:59;18.80;65.80
5352;DHT22;2698;51.454;6.736;2022-07-29T02:05:28;18.80;65.90
5352;DHT22;2698;51.454;6.736;2022-07-29T02:07:58;18.80;65.90
5352;DHT22;2698;51.454;6.736;2022-07-29T02:10:28;18.80;67.40
5352;DHT22;2698;51.454;6.736;2022-07-29T02:12:57;18.80;67.70
5352;DHT22;2698;51.454;6.736;2022-07-29T02:15:25;18.80;68.10
5352;DHT22;2698;51.454;6.736;2022-07-29T02:17:58;18.70;69.50
5352;DHT22;2698;51.454;6.736;2022-07-29T02:20:27;18.80;69.70
5352;DHT22;2698;51.454;6.736;2022-07-29T02:22:55;18.70;71.00
5352;DHT22;2698;51.454;6.736;2022-07-29T02:25:24;18.70;72.10
5352;DHT22;2698;51.454;6.736;2022-07-29T02:27:52;18.70;73.80
5352;DHT22;2698;51.454;6.736;2022-07-29T02:30:20;18.70;76.90
5352;DHT22;2698;51.454;6.736;2022-07-29T02:32:49;18.60;81.60
5352;DHT22;2698;51.454;6.736;2022-07-29T02:35:20;18.60;86.40
5352;DHT22;2698;51.454;6.736;2022-07-29T02:37:47;18.70;94.20
5352;DHT22;2698;51.454;6.736;2022-07-29T02:40:38;18.70;96.60
5352;DHT22;2698;51.454;6.736;2022-07-29T02:43:06;18.60;99.90
5352;DHT22;2698;51.454;6.736;2022-07-29T02:45:34;18.60;99.90
5352;DHT22;2698;51.454;6.736;2022-07-29T02:48:06;18.60;99.90
5352;DHT22;2698;51.454;6.736;2022-07-29T02:50:38;18.50;99.90
5352;DHT22;2698;51.454;6.736;2022-07-29T02:53:17;18.40;99.90
5352;DHT22;2698;51.454;6.736;2022-07-29T02:55:46;18.40;99.90
5352;DHT22;2698;51.454;6.736;2022-07-29T02:58:19;18.30;99.90
5352;DHT22;2698;51.454;6.736;2022-07-29T03:00:52;18.30;99.90
5352;DHT22;2698;51.454;6.736;2022-07-29T03:03:20;18.30;99.90
5352;DHT22;2698;51.454;6.736;2022-07-29T03:05:49;18.20;99.90
5352;DHT22;2698;51.454;6.736;2022-07-29T03:08:16;18.10;99.90
5352;DHT22;2698;51.454;6.736;2022-07-29T03:10:44;18.20;99.90
5352;DHT22;2698;51.454;6.736;2022-07-29T03:13:12;18.00;99.90
5352;DHT22;2698;51.454;6.736;2022-07-29T03:15:42;18.00;99.90
5352;DHT22;2698;51.454;6.736;2022-07-29T03:18:09;17.90;99.90
5352;DHT22;2698;51.454;6.736;2022-07-29T03:20:37;17.90;99.90
5352;DHT22;2698;51.454;6.736;2022-07-29T03:23:05;17.80;99.90
5352;DHT22;2698;51.454;6.736;2022-07-29T03:25:32;17.70;99.90
5352;DHT22;2698;51.454;6.736;2022-07-29T03:28:00;17.70;99.90
5352;DHT22;2698;51.454;6.736;2022-07-29T03:30:27;17.60;99.90
5352;DHT22;2698;51.454;6.736;2022-07-29T03:32:56;17.40;99.90
5352;DHT22;2698;51.454;6.736;2022-07-29T03:35:23;17.30;99.90
5352;DHT22;2698;51.454;6.736;2022-07-29T03:37:50;17.40;99.90
5352;DHT22;2698;51.454;6.736;2022-07-29T03:40:21;17.40;99.90
5352;DHT22;2698;51.454;6.736;2022-07-29T03:42:50;17.40;99.90
5352;DHT22;2698;51.454;6.736;2022-07-29T03:45:19;17.50;99.90
5352;DHT22;2698;51.454;6.736;2022-07-29T03:47:50;17.40;99.90
5352;DHT22;2698;51.454;6.736;2022-07-29T03:50:17;17.40;99.90
5352;DHT22;2698;51.454;6.736;2022-07-29T03:52:45;17.40;99.90
5352;DHT22;2698;51.454;6.736;2022-07-29T03:55:13;17.50;99.90
5352;DHT22;2698;51.454;6.736;2022-07-29T03:57:42;17.60;99.90
5352;DHT22;2698;51.454;6.736;2022-07-29T04:00:11;17.50;99.90
5352;DHT22;2698;51.454;6.736;2022-07-29T04:02:39;17.50;99.90
5352;DHT22;2698;51.454;6.736;2022-07-29T04:05:11;17.40;99.90
5352;DHT22;2698;51.454;6.736;2022-07-29T04:07:38;17.40;99.90
5352;DHT22;2698;51.454;6.736;2022-07-29T04:10:06;17.50;99.90
5352;DHT22;2698;51.454;6.736;2022-07-29T04:12:33;17.50;99.90
5352;DHT22;2698;51.454;6.736;2022-07-29T04:15:02;17.50;99.90
5352;DHT22;2698;51.454;6.736;2022-07-29T04:17:28;17.50;99.90
5352;DHT22;2698;51.454;6.736;2022-07-29T04:19:55;17.30;99.90
5352;DHT22;2698;51.454;6.736;2022-07-29T04:22:22;17.20;99.90
5352;DHT22;2698;51.454;6.736;2022-07-29T04:24:49;17.10;99.90
5352;DHT22;2698;51.454;6.736;2022-07-29T04:27:16;17.00;99.90
5352;DHT22;2698;51.454;6.736;2022-07-29T04:29:42;16.90;99.90
5352;DHT22;2698;51.454;6.736;2022-07-29T04:32:11;16.80;99.90
5352;DHT22;2698;51.454;6.736;2022-07-29T04:34:37;16.70;99.90
5352;DHT22;2698;51.454;6.736;2022-07-29T04:37:04;16.80;99.90
5352;DHT22;2698;51.454;6.736;2022-07-29T04:39:31;16.70;99.90
5352;DHT22;2698;51.454;6.736;2022-07-29T04:41:58;16.70;99.90
5352;DHT22;2698;51.454;6.736;2022-07-29T04:44:25;16.70;99.90
5352;DHT22;2698;51.454;6.736;2022-07-29T04:46:52;16.70;99.90
5352;DHT22;2698;51.454;6.736;2022-07-29T04:49:20;16.70;99.90
5352;DHT22;2698;51.454;6.736;2022-07-29T04:51:47;16.60;99.90
5352;DHT22;2698;51.454;6.736;2022-07-29T04:54:13;16.50;99.90
5352;DHT22;2698;51.454;6.736;2022-07-29T04:56:40;16.40;99.90
5352;DHT22;2698;51.454;6.736;2022-07-29T04:59:07;16.40;99.90
5352;DHT22;2698;51.454;6.736;2022-07-29T05:01:34;16.40;99.90
5352;DHT22;2698;51.454;6.736;2022-07-29T05:04:01;16.30;99.90
5352;DHT22;2698;51.454;6.736;2022-07-29T05:06:29;16.30;99.90
5352;DHT22;2698;51.454;6.736;2022-07-29T05:08:56;16.30;99.90
5352;DHT22;2698;51.454;6.736;2022-07-29T05:11:23;16.20;99.90
5352;DHT22;2698;51.454;6.736;2022-07-29T05:13:49;16.10;99.90
5352;DHT22;2698;51.454;6.736;2022-07-29T05:16:16;16.10;99.90
5352;DHT22;2698;51.454;6.736;2022-07-29T05:18:43;16.10;99.90
5352;DHT22;2698;51.454;6.736;2022-07-29T05:21:10;16.20;99.90
5352;DHT22;2698;51.454;6.736;2022-07-29T05:23:38;16.10;99.90
5352;DHT22;2698;51.454;6.736;2022-07-29T05:26:05;16.00;99.90
5352;DHT22;2698;51.454;6.736;2022-07-29T05:28:33;16.00;99.90
5352;DHT22;2698;51.454;6.736;2022-07-29T05:31:00;16.00;99.90
5352;DHT22;2698;51.454;6.736;2022-07-29T05:33:27;16.00;99.90
5352;DHT22;2698;51.454;6.736;2022-07-29T05:35:53;16.00;99.90
5352;DHT22;2698;51.454;6.736;2022-07-29T05:38:20;16.00;99.90
5352;DHT22;2698;51.454;6.736;2022-07-29T05:40:48;16.00;99.90
5352;DHT22;2698;51.454;6.736;2022-07-29T05:43:15;16.00;99.90
5352;DHT22;2698;51.454;6.736;2022-07-29T05:45:42;16.00;99.90
5352;DHT22;2698;51.454;6.736;2022-07-29T05:48:09;16.00;99.90
5352;DHT22;2698;51.454;6.736;2022-07-29T05:50:36;16.00;99.90
5352;DHT22;2698;51.454;6.736;2022-07-29T05:53:02;16.00;99.90
5352;DHT22;2698;51.454;6.736;2022-07-29T05:55:29;15.90;99.90
5352;DHT22;2698;51.454;6.736;2022-07-29T05:57:58;16.00;99.90
5352;DHT22;2698;51.454;6.736;2022-07-29T06:00:25;16.00;99.90
5352;DHT22;2698;51.454;6.736;2022-07-29T06:02:51;16.10;99.90
5352;DHT22;2698;51.454;6.736;2022-07-29T06:05:18;16.10;99.90
5352;DHT22;2698;51.454;6.736;2022-07-29T06:07:45;16.10;99.90
5352;DHT22;2698;51.454;6.736;2022-07-29T06:10:12;16.10;99.90
5352;DHT22;2698;51.454;6.736;2022-07-29T06:12:39;16.10;99.90
5352;DHT22;2698;51.454;6.736;2022-07-29T06:15:08;16.20;99.90
5352;DHT22;2698;51.454;6.736;2022-07-29T06:17:35;16.20;99.90
5352;DHT22;2698;51.454;6.736;2022-07-29T06:20:02;16.20;99.90
5352;DHT22;2698;51.454;6.736;2022-07-29T06:22:30;16.30;99.90
5352;DHT22;2698;51.454;6.736;2022-07-29T06:24:56;16.30;99.90
5352;DHT22;2698;51.454;6.736;2022-07-29T06:27:23;16.40;99.90
5352;DHT22;2698;51.454;6.736;2022-07-29T06:29:50;16.50;99.90
5352;DHT22;2698;51.454;6.736;2022-07-29T06:32:18;16.60;99.90
5352;DHT22;2698;51.454;6.736;2022-07-29T06:34:45;16.70;99.90
5352;DHT22;2698;51.454;6.736;2022-07-29T06:37:12;16.80;99.90
5352;DHT22;2698;51.454;6.736;2022-07-29T06:39:39;16.80;99.90
5352;DHT22;2698;51.454;6.736;2022-07-29T06:42:06;16.90;99.90
5352;DHT22;2698;51.454;6.736;2022-07-29T06:44:33;17.00;99.90
5352;DHT22;2698;51.454;6.736;2022-07-29T06:47:00;17.00;99.90
5352;DHT22;2698;51.454;6.736;2022-07-29T06:49:28;17.00;99.90
5352;DHT22;2698;51.454;6.736;2022-07-29T06:51:55;17.00;99.90
5352;DHT22;2698;51.454;6.736;2022-07-29T06:54:22;17.00;99.90
5352;DHT22;2698;51.454;6.736;2022-07-29T06:56:49;17.00;99.90
5352;DHT22;2698;51.454;6.736;2022-07-29T06:59:16;17.00;99.90
5352;DHT22;2698;51.454;6.736;2022-07-29T07:01:43;17.10;99.90
5352;DHT22;2698;51.454;6.736;2022-07-29T07:04:10;17.20;99.90
5352;DHT22;2698;51.454;6.736;2022-07-29T07:06:39;17.20;99.90
5352;DHT22;2698;51.454;6.736;2022-07-29T07:09:06;17.20;99.90
5352;DHT22;2698;51.454;6.736;2022-07-29T07:11:33;17.20;99.90
5352;DHT22;2698;51.454;6.736;2022-07-29T07:14:00;17.20;99.90
5352;DHT22;2698;51.454;6.736;2022-07-29T07:16:26;17.30;99.90
5352;DHT22;2698;51.454;6.736;2022-07-29T07:18:53;17.30;99.90
5352;DHT22;2698;51.454;6.736;2022-07-29T07:21:20;17.30;99.90
5352;DHT22;2698;51.454;6.736;2022-07-29T07:23:48;17.40;99.90
5352;DHT22;2698;51.454;6.736;2022-07-29T07:26:15;17.40;99.90
5352;DHT22;2698;51.454;6.736;2022-07-29T07:28:42;17.50;99.90
5352;DHT22;2698;51.454;6.736;2022-07-29T07:31:09;17.60;99.90
5352;DHT22;2698;51.454;6.736;2022-07-29T07:33:36;17.60;99.90
5352;DHT22;2698;51.454;6.736;2022-07-29T07:36:03;17.60;99.90
5352;DHT22;2698;51.454;6.736;2022-07-29T07:38:30;17.60;99.90
5352;DHT22;2698;51.454;6.736;2022-07-29T07:40:58;17.60;99.90
5352;DHT22;2698;51.454;6.736;2022-07-29T07:43:25;17.60;99.90
5352;DHT22;2698;51.454;6.736;2022-07-29T07:45:52;17.60;99.90
5352;DHT22;2698;51.454;6.736;2022-07-29T07:48:18;17.60;99.90
5352;DHT22;2698;51.454;6.736;2022-07-29T07:50:45;17.60;99.90
5352;DHT22;2698;51.454;6.736;2022-07-29T07:53:15;17.70;99.90
5352;DHT22;2698;51.454;6.736;2022-07-29T07:55:42;17.70;99.90
5352;DHT22;2698;51.454;6.736;2022-07-29T07:58:11;17.70;99.90
5352;DHT22;2698;51.454;6.736;2022-07-29T08:00:37;17.70;99.90
5352;DHT22;2698;51.454;6.736;2022-07-29T08:03:04;17.70;99.90
5352;DHT22;2698;51.454;6.736;2022-07-29T08:05:31;17.60;99.90
5352;DHT22;2698;51.454;6.736;2022-07-29T08:07:58;17.60;99.90
5352;DHT22;2698;51.454;6.736;2022-07-29T08:10:25;17.40;99.90
5352;DHT22;2698;51.454;6.736;2022-07-29T08:13:11;17.50;99.90
5352;DHT22;2698;51.454;6.736;2022-07-29T08:15:39;17.50;99.90
5352;DHT22;2698;51.454;6.736;2022-07-29T08:18:06;17.40;99.90
5352;DHT22;2698;51.454;6.736;2022-07-29T08:20:34;17.30;99.90
5352;DHT22;2698;51.454;6.736;2022-07-29T08:23:02;17.20;99.90
5352;DHT22;2698;51.454;6.736;2022-07-29T08:25:31;17.30;99.90
5352;DHT22;2698;51.454;6.736;2022-07-29T08:27:58;17.10;99.90
5352;DHT22;2698;51.454;6.736;2022-07-29T08:30:26;17.00;99.90
5352;DHT22;2698;51.454;6.736;2022-07-29T08:32:53;17.00;99.90
5352;DHT22;2698;51.454;6.736;2022-07-29T08:35:20;17.00;99.90
5352;DHT22;2698;51.454;6.736;2022-07-29T08:37:47;17.00;99.90
5352;DHT22;2698;51.454;6.736;2022-07-29T08:40:14;17.00;99.90
5352;DHT22;2698;51.454;6.736;2022-07-29T08:42:41;17.00;99.90
5352;DHT22;2698;51.454;6.736;2022-07-29T08:45:08;17.00;99.90
5352;DHT22;2698;51.454;6.736;2022-07-29T08:47:38;17.00;99.90
5352;DHT22;2698;51.454;6.736;2022-07-29T08:50:06;17.20;99.90
5352;DHT22;2698;51.454;6.736;2022-07-29T08:52:36;17.40;99.90
5352;DHT22;2698;51.454;6.736;2022-07-29T08:55:04;17.40;99.90
5352;DHT22;2698;51.454;6.736;2022-07-29T08:57:33;17.60;99.90
5352;DHT22;2698;51.454;6.736;2022-07-29T09:00:01;17.80;99.90
5352;DHT22;2698;51.454;6.736;2022-07-29T09:02:30;18.00;99.90
5352;DHT22;2698;51.454;6.736;2022-07-29T09:05:01;18.00;99.90
5352;DHT22;2698;51.454;6.736;2022-07-29T09:07:28;18.20;99.90
5352;DHT22;2698;51.454;6.736;2022-07-29T09:09:55;18.40;99.90
5352;DHT22;2698;51.454;6.736;2022-07-29T09:12:23;18.40;99.90
5352;DHT22;2698;51.454;6.736;2022-07-29T09:14:50;18.30;99.90
5352;DHT22;2698;51.454;6.736;2022-07-29T09:17:17;18.50;99.90
5352;DHT22;2698;51.454;6.736;2022-07-29T09:19:45;18.30;99.90
5352;DHT22;2698;51.454;6.736;2022-07-29T09:22:28;18.40;99.90
5352;DHT22;2698;51.454;6.736;2022-07-29T09:24:55;18.40;99.90
5352;DHT22;2698;51.454;6.736;2022-07-29T09:27:24;18.40;99.90
5352;DHT22;2698;51.454;6.736;2022-07-29T09:29:58;18.30;99.90
5352;DHT22;2698;51.454;6.736;2022-07-29T09:32:25;18.40;99.90
5352;DHT22;2698;51.454;6.736;2022-07-29T09:35:14;18.40;99.90
5352;DHT22;2698;51.454;6.736;2022-07-29T09:37:43;18.30;99.90
5352;DHT22;2698;51.454;6.736;2022-07-29T09:40:14;18.40;99.90
5352;DHT22;2698;51.454;6.736;2022-07-29T09:42:42;18.50;99.90
5352;DHT22;2698;51.454;6.736;2022-07-29T09:45:09;18.60;99.90
5352;DHT22;2698;51.454;6.736;2022-07-29T09:47:45;18.60;99.90
5352;DHT22;2698;51.454;6.736;2022-07-29T09:50:14;18.90;99.90
5352;DHT22;2698;51.454;6.736;2022-07-29T09:52:47;18.80;99.90
5352;DHT22;2698;51.454;6.736;2022-07-29T09:55:14;19.00;99.90
5352;DHT22;2698;51.454;6.736;2022-07-29T09:57:41;19.20;99.90
5352;DHT22;2698;51.454;6.736;2022-07-29T10:00:10;19.20;99.90
5352;DHT22;2698;51.454;6.736;2022-07-29T10:02:38;19.20;99.90
5352;DHT22;2698;51.454;6.736;2022-07-29T10:05:18;19.30;99.90
5352;DHT22;2698;51.454;6.736;2022-07-29T10:07:48;19.20;99.90
5352;DHT22;2698;51.454;6.736;2022-07-29T10:10:20;19.20;99.90
5352;DHT22;2698;51.454;6.736;2022-07-29T10:12:53;19.10;99.90
5352;DHT22;2698;51.454;6.736;2022-07-29T10:15:22;19.20;99.90
5352;DHT22;2698;51.454;6.736;2022-07-29T10:17:50;19.20;99.90
5352;DHT22;2698;51.454;6.736;2022-07-29T10:20:17;19.30;99.90
5352;DHT22;2698;51.454;6.736;2022-07-29T10:22:45;19.40;99.90
5352;DHT22;2698;51.454;6.736;2022-07-29T10:25:14;19.40;99.90
5352;DHT22;2698;51.454;6.736;2022-07-29T10:27:42;19.40;99.90
5352;DHT22;2698;51.454;6.736;2022-07-29T10:30:10;19.60;99.90
5352;DHT22;2698;51.454;6.736;2022-07-29T10:33:09;19.70;99.90
5352;DHT22;2698;51.454;6.736;2022-07-29T10:35:48;19.90;99.90
5352;DHT22;2698;51.454;6.736;2022-07-29T10:38:41;20.30;99.90
5352;DHT22;2698;51.454;6.736;2022-07-29T10:44:02;21.00;99.90
5352;DHT22;2698;51.454;6.736;2022-07-29T10:46:34;21.20;99.90
5352;DHT22;2698;51.454;6.736;2022-07-29T10:49:09;21.60;99.90
5352;DHT22;2698;51.454;6.736;2022-07-29T10:51:55;21.70;99.90
5352;DHT22;2698;51.454;6.736;2022-07-29T10:54:44;21.90;99.90
5352;DHT22;2698;51.454;6.736;2022-07-29T10:57:20;22.20;99.90
5352;DHT22;2698;51.454;6.736;2022-07-29T10:59:48;22.60;99.90
5352;DHT22;2698;51.454;6.736;2022-07-29T11:02:40;22.50;99.90
5352;DHT22;2698;51.454;6.736;2022-07-29T11:05:09;22.00;99.90
5352;DHT22;2698;51.454;6.736;2022-07-29T11:07:37;22.30;99.90
5352;DHT22;2698;51.454;6.736;2022-07-29T11:10:22;22.30;99.90
5352;DHT22;2698;51.454;6.736;2022-07-29T11:12:49;22.00;99.90
5352;DHT22;2698;51.454;6.736;2022-07-29T11:15:18;22.10;99.90
5352;DHT22;2698;51.454;6.736;2022-07-29T11:18:08;22.50;99.90
5352;DHT22;2698;51.454;6.736;2022-07-29T11:20:39;22.60;99.90
5352;DHT22;2698;51.454;6.736;2022-07-29T11:23:21;22.50;99.90
5352;DHT22;2698;51.454;6.736;2022-07-29T11:26:19;22.70;99.90
5352;DHT22;2698;51.454;6.736;2022-07-29T11:28:54;22.70;99.90
5352;DHT22;2698;51.454;6.736;2022-07-29T11:31:33;22.80;99.90
5352;DHT22;2698;51.454;6.736;2022-07-29T11:34:27;23.10;99.90
5352;DHT22;2698;51.454;6.736;2022-07-29T11:37:20;23.40;99.90
5352;DHT22;2698;51.454;6.736;2022-07-29T11:40:15;23.10;99.90
5352;DHT22;2698;51.454;6.736;2022-07-29T11:42:50;23.10;99.90
5352;DHT22;2698;51.454;6.736;2022-07-29T11:45:25;22.90;99.90
5352;DHT22;2698;51.454;6.736;2022-07-29T11:47:58;23.10;99.90
5352;DHT22;2698;51.454;6.736;2022-07-29T11:50:43;23.40;99.90
5352;DHT22;2698;51.454;6.736;2022-07-29T11:53:12;23.20;99.90
5352;DHT22;2698;51.454;6.736;2022-07-29T11:55:40;23.20;99.90
5352;DHT22;2698;51.454;6.736;2022-07-29T11:58:08;23.50;99.90
5352;DHT22;2698;51.454;6.736;2022-07-29T12:00:37;23.50;99.90
5352;DHT22;2698;51.454;6.736;2022-07-29T12:03:06;23.30;99.90
5352;DHT22;2698;51.454;6.736;2022-07-29T12:05:38;23.20;99.90
5352;DHT22;2698;51.454;6.736;2022-07-29T12:08:11;23.40;99.90
5352;DHT22;2698;51.454;6.736;2022-07-29T12:10:38;23.40;99.90
5352;DHT22;2698;51.454;6.736;2022-07-29T12:13:05;23.10;99.90
5352;DHT22;2698;51.454;6.736;2022-07-29T12:15:34;23.20;99.90
5352;DHT22;2698;51.454;6.736;2022-07-29T12:18:15;23.50;99.90
5352;DHT22;2698;51.454;6.736;2022-07-29T12:20:43;23.40;99.90
5352;DHT22;2698;51.454;6.736;2022-07-29T12:23:11;23.20;99.90
5352;DHT22;2698;51.454;6.736;2022-07-29T12:25:40;22.90;99.90
5352;DHT22;2698;51.454;6.736;2022-07-29T12:28:11;23.10;99.90
5352;DHT22;2698;51.454;6.736;2022-07-29T12:30:42;23.00;99.90
5352;DHT22;2698;51.454;6.736;2022-07-29T12:33:20;23.10;99.90
5352;DHT22;2698;51.454;6.736;2022-07-29T12:35:49;22.90;99.90
5352;DHT22;2698;51.454;6.736;2022-07-29T12:38:17;23.20;99.90
5352;DHT22;2698;51.454;6.736;2022-07-29T12:40:45;23.20;99.90
5352;DHT22;2698;51.454;6.736;2022-07-29T12:43:14;23.00;99.90
5352;DHT22;2698;51.454;6.736;2022-07-29T12:45:44;23.00;99.90
5352;DHT22;2698;51.454;6.736;2022-07-29T12:48:12;23.00;99.90
5352;DHT22;2698;51.454;6.736;2022-07-29T12:50:54;23.10;99.90
5352;DHT22;2698;51.454;6.736;2022-07-29T12:53:21;23.00;99.90
5352;DHT22;2698;51.454;6.736;2022-07-29T12:55:50;23.10;99.90
5352;DHT22;2698;51.454;6.736;2022-07-29T12:58:32;23.40;99.90
5352;DHT22;2698;51.454;6.736;2022-07-29T13:01:08;23.80;99.90
5352;DHT22;2698;51.454;6.736;2022-07-29T13:03:44;23.70;99.90
5352;DHT22;2698;51.454;6.736;2022-07-29T13:06:29;23.70;99.90
5352;DHT22;2698;51.454;6.736;2022-07-29T13:09:00;23.30;99.90
5352;DHT22;2698;51.454;6.736;2022-07-29T13:11:28;23.60;99.90
5352;DHT22;2698;51.454;6.736;2022-07-29T13:13:55;23.40;99.90
5352;DHT22;2698;51.454;6.736;2022-07-29T13:16:24;23.30;99.90
5352;DHT22;2698;51.454;6.736;2022-07-29T13:19:04;23.20;99.90
5352;DHT22;2698;51.454;6.736;2022-07-29T13:21:31;23.30;99.90
5352;DHT22;2698;51.454;6.736;2022-07-29T13:23:58;23.10;99.90
5352;DHT22;2698;51.454;6.736;2022-07-29T13:26:25;23.20;99.90
5352;DHT22;2698;51.454;6.736;2022-07-29T13:28:51;23.30;99.90
5352;DHT22;2698;51.454;6.736;2022-07-29T13:31:18;23.80;99.90
5352;DHT22;2698;51.454;6.736;2022-07-29T13:33:46;23.90;99.90
5352;DHT22;2698;51.454;6.736;2022-07-29T13:36:13;24.40;99.90
5352;DHT22;2698;51.454;6.736;2022-07-29T13:38:40;24.80;98.30
5352;DHT22;2698;51.454;6.736;2022-07-29T13:41:07;24.50;93.80
5352;DHT22;2698;51.454;6.736;2022-07-29T13:43:34;24.40;89.10
5352;DHT22;2698;51.454;6.736;2022-07-29T13:46:01;24.60;86.50
5352;DHT22;2698;51.454;6.736;2022-07-29T13:48:28;24.40;79.50
5352;DHT22;2698;51.454;6.736;2022-07-29T13:50:56;24.50;76.40
5352;DHT22;2698;51.454;6.736;2022-07-29T13:53:23;24.40;75.10
5352;DHT22;2698;51.454;6.736;2022-07-29T13:55:50;24.10;79.40
5352;DHT22;2698;51.454;6.736;2022-07-29T13:58:17;24.50;84.00
5352;DHT22;2698;51.454;6.736;2022-07-29T14:00:44;24.30;90.90
5352;DHT22;2698;51.454;6.736;2022-07-29T14:03:12;24.30;79.40
5352;DHT22;2698;51.454;6.736;2022-07-29T14:05:38;24.30;80.70
5352;DHT22;2698;51.454;6.736;2022-07-29T14:08:06;24.20;77.60
5352;DHT22;2698;51.454;6.736;2022-07-29T14:10:33;24.10;80.90
5352;DHT22;2698;51.454;6.736;2022-07-29T14:13:00;24.10;82.40
5352;DHT22;2698;51.454;6.736;2022-07-29T14:15:27;24.10;76.90
5352;DHT22;2698;51.454;6.736;2022-07-29T14:17:54;24.20;75.90
5352;DHT22;2698;51.454;6.736;2022-07-29T14:20:21;24.00;74.50
5352;DHT22;2698;51.454;6.736;2022-07-29T14:22:48;24.30;75.40
5352;DHT22;2698;51.454;6.736;2022-07-29T14:25:16;24.20;72.30
5352;DHT22;2698;51.454;6.736;2022-07-29T14:27:43;24.10;73.10
5352;DHT22;2698;51.454;6.736;2022-07-29T14:30:11;24.30;72.90
5352;DHT22;2698;51.454;6.736;2022-07-29T14:32:38;24.40;71.40
5352;DHT22;2698;51.454;6.736;2022-07-29T14:35:06;24.40;70.30
5352;DHT22;2698;51.454;6.736;2022-07-29T14:37:33;24.40;70.50
5352;DHT22;2698;51.454;6.736;2022-07-29T14:40:00;24.30;70.80
5352;DHT22;2698;51.454;6.736;2022-07-29T14:42:30;24.20;67.80
5352;DHT22;2698;51.454;6.736;2022-07-29T14:44:57;24.20;67.50
5352;DHT22;2698;51.454;6.736;2022-07-29T14:47:24;24.40;68.70
5352;DHT22;2698;51.454;6.736;2022-07-29T14:49:51;24.30;70.00
5352;DHT22;2698;51.454;6.736;2022-07-29T14:52:18;23.90;69.90
5352;DHT22;2698;51.454;6.736;2022-07-29T14:54:45;24.00;72.00
5352;DHT22;2698;51.454;6.736;2022-07-29T14:57:12;24.00;70.50
5352;DHT22;2698;51.454;6.736;2022-07-29T14:59:40;24.20;69.60
5352;DHT22;2698;51.454;6.736;2022-07-29T15:02:07;24.40;68.20
5352;DHT22;2698;51.454;6.736;2022-07-29T15:04:34;24.30;69.00
5352;DHT22;2698;51.454;6.736;2022-07-29T15:07:01;24.40;67.10
5352;DHT22;2698;51.454;6.736;2022-07-29T15:09:27;24.40;67.60
5352;DHT22;2698;51.454;6.736;2022-07-29T15:11:54;24.20;67.60
5352;DHT22;2698;51.454;6.736;2022-07-29T15:14:21;24.10;68.30
5352;DHT22;2698;51.454;6.736;2022-07-29T15:16:49;24.10;68.80
5352;DHT22;2698;51.454;6.736;2022-07-29T15:19:16;24.10;65.90
5352;DHT22;2698;51.454;6.736;2022-07-29T15:21:43;24.00;65.10
5352;DHT22;2698;51.454;6.736;2022-07-29T15:24:10;23.80;64.40
5352;DHT22;2698;51.454;6.736;2022-07-29T15:26:37;24.10;63.60
5352;DHT22;2698;51.454;6.736;2022-07-29T15:29:03;24.20;61.40
5352;DHT22;2698;51.454;6.736;2022-07-29T15:31:30;24.20;58.60
5352;DHT22;2698;51.454;6.736;2022-07-29T15:33:58;24.30;56.40
5352;DHT22;2698;51.454;6.736;2022-07-29T15:36:25;24.20;55.40
5352;DHT22;2698;51.454;6.736;2022-07-29T15:38:52;24.30;53.80
5352;DHT22;2698;51.454;6.736;2022-07-29T15:41:20;24.20;54.30
5352;DHT22;2698;51.454;6.736;2022-07-29T15:43:47;24.10;57.00
5352;DHT22;2698;51.454;6.736;2022-07-29T15:46:15;24.10;56.40
5352;DHT22;2698;51.454;6.736;2022-07-29T15:49:03;24.30;56.00
5352;DHT22;2698;51.454;6.736;2022-07-29T15:51:31;24.30;56.90
5352;DHT22;2698;51.454;6.736;2022-07-29T15:53:58;24.00;56.10
5352;DHT22;2698;51.454;6.736;2022-07-29T15:56:26;24.00;56.10
5352;DHT22;2698;51.454;6.736;2022-07-29T15:58:53;24.00;56.80
5352;DHT22;2698;51.454;6.736;2022-07-29T16:01:20;24.20;55.40
5352;DHT22;2698;51.454;6.736;2022-07-29T16:03:47;24.20;56.00
5352;DHT22;2698;51.454;6.736;2022-07-29T16:06:15;24.40;55.90
5352;DHT22;2698;51.454;6.736;2022-07-29T16:08:44;24.20;56.40
5352;DHT22;2698;51.454;6.736;2022-07-29T16:11:10;24.00;58.00
5352;DHT22;2698;51.454;6.736;2022-07-29T16:13:37;24.10;59.70
5352;DHT22;2698;51.454;6.736;2022-07-29T16:16:04;24.00;60.40
5352;DHT22;2698;51.454;6.736;2022-07-29T16:18:31;24.10;60.60